sensor_id;sensor_type;location;lat;lon;timestamp;pressure;altitude;pressure_sealevel;temperature;humidity
73674;BME280;61975;48.660;10.164;2023-10-13T00:01:47;95746.56;;;17.18;60.66
73674;BME280;61975;48.660;10.164;2023-10-13T00:04:12;95748.16;;;17.19;60.33
73674;BME280;61975;48.660;10.164;2023-10-13T00:06:37;95749.78;;;17.17;59.89
73674;BME280;61975;48.660;10.164;2023-10-13T00:09:03;95750.59;;;17.17;60.04
73674;BME280;61975;48.660;10.164;2023-10-13T00:11:29;95749.78;;;17.17;60.91
73674;BME280;61975;48.660;10.164;2023-10-13T00:13:54;95752.59;;;17.17;61.25
73674;BME280;61975;48.660;10.164;2023-10-13T00:16:21;95753.00;;;17.15;60.81
73674;BME280;61975;48.660;10.164;2023-10-13T00:18:50;95754.66;;;17.13;60.33
73674;BME280;61975;48.660;10.164;2023-10-13T00:21:20;95753.06;;;17.12;60.17
73674;BME280;61975;48.660;10.164;2023-10-13T00:23:56;95755.50;;;17.10;59.84
73674;BME280;61975;48.660;10.164;2023-10-13T00:26:23;95752.34;;;17.08;60.75
73674;BME280;61975;48.660;10.164;2023-10-13T00:28:57;95751.94;;;17.06;61.28
73674;BME280;61975;48.660;10.164;2023-10-13T00:31:32;95747.59;;;17.01;61.58
73674;BME280;61975;48.660;10.164;2023-10-13T00:34:04;95745.22;;;17.00;61.99
73674;BME280;61975;48.660;10.164;2023-10-13T00:36:50;95750.09;;;16.96;61.86
73674;BME280;61975;48.660;10.164;2023-10-13T00:39:36;95742.50;;;16.93;62.30
73674;BME280;61975;48.660;10.164;2023-10-13T00:42:03;95745.38;;;16.89;62.59
73674;BME280;61975;48.660;10.164;2023-10-13T00:44:32;95746.22;;;16.86;63.02
73674;BME280;61975;48.660;10.164;2023-10-13T00:47:06;95738.28;;;16.81;63.08
73674;BME280;61975;48.660;10.164;2023-10-13T00:49:35;95739.13;;;16.78;62.94
73674;BME280;61975;48.660;10.164;2023-10-13T00:52:09;95737.94;;;16.76;63.15
73674;BME280;61975;48.660;10.164;2023-10-13T00:54:37;95738.00;;;16.72;62.89
73674;BME280;61975;48.660;10.164;2023-10-13T00:57:03;95736.84;;;16.70;62.63
73674;BME280;61975;48.660;10.164;2023-10-13T00:59:49;95731.69;;;16.65;62.62
73674;BME280;61975;48.660;10.164;2023-10-13T01:02:18;95738.13;;;16.62;61.77
73674;BME280;61975;48.660;10.164;2023-10-13T01:05:04;95735.78;;;16.57;61.28
73674;BME280;61975;48.660;10.164;2023-10-13T01:07:30;95736.28;;;16.52;61.38
73674;BME280;61975;48.660;10.164;2023-10-13T01:09:55;95739.50;;;16.50;61.83
73674;BME280;61975;48.660;10.164;2023-10-13T01:12:21;95741.09;;;16.48;62.10
73674;BME280;61975;48.660;10.164;2023-10-13T01:14:49;95739.13;;;16.44;62.71
73674;BME280;61975;48.660;10.164;2023-10-13T01:17:15;95737.16;;;16.41;62.82
73674;BME280;61975;48.660;10.164;2023-10-13T01:19:40;95733.16;;;16.39;63.24
73674;BME280;61975;48.660;10.164;2023-10-13T01:22:08;95726.41;;;16.36;63.83
73674;BME280;61975;48.660;10.164;2023-10-13T01:24:34;95733.25;;;16.32;63.94
73674;BME280;61975;48.660;10.164;2023-10-13T01:27:09;95729.28;;;16.29;64.38
73674;BME280;61975;48.660;10.164;2023-10-13T01:29:48;95726.94;;;16.24;63.94
73674;BME280;61975;48.660;10.164;2023-10-13T01:32:17;95725.41;;;16.20;64.43
73674;BME280;61975;48.660;10.164;2023-10-13T01:34:43;95733.41;;;16.18;64.25
73674;BME280;61975;48.660;10.164;2023-10-13T01:37:11;95727.88;;;16.14;64.42
73674;BME280;61975;48.660;10.164;2023-10-13T01:39:37;95735.50;;;16.10;64.47
73674;BME280;61975;48.660;10.164;2023-10-13T01:42:02;95740.38;;;16.06;64.58
73674;BME280;61975;48.660;10.164;2023-10-13T01:44:28;95735.19;;;16.01;64.59
73674;BME280;61975;48.660;10.164;2023-10-13T01:46:56;95741.63;;;15.98;64.20
73674;BME280;61975;48.660;10.164;2023-10-13T01:49:27;95734.88;;;15.92;64.67
73674;BME280;61975;48.660;10.164;2023-10-13T01:51:53;95729.34;;;15.89;64.65
73674;BME280;61975;48.660;10.164;2023-10-13T01:54:19;95726.56;;;15.85;64.73
73674;BME280;61975;48.660;10.164;2023-10-13T01:56:46;95733.41;;;15.81;64.84
73674;BME280;61975;48.660;10.164;2023-10-13T01:59:14;95727.47;;;15.75;65.38
73674;BME280;61975;48.660;10.164;2023-10-13T02:01:40;95731.09;;;15.72;65.62
73674;BME280;61975;48.660;10.164;2023-10-13T02:04:07;95726.75;;;15.68;65.73
73674;BME280;61975;48.660;10.164;2023-10-13T02:06:34;95735.97;;;15.65;65.64
73674;BME280;61975;48.660;10.164;2023-10-13T02:09:10;95734.03;;;15.58;65.91
73674;BME280;61975;48.660;10.164;2023-10-13T02:11:42;95730.03;;;15.56;65.89
73674;BME280;61975;48.660;10.164;2023-10-13T02:14:08;95730.06;;;15.52;66.13
73674;BME280;61975;48.660;10.164;2023-10-13T02:16:36;95729.31;;;15.48;66.22
73674;BME280;61975;48.660;10.164;2023-10-13T02:19:02;95730.13;;;15.45;66.03
73674;BME280;61975;48.660;10.164;2023-10-13T02:21:33;95726.59;;;15.41;66.16
73674;BME280;61975;48.660;10.164;2023-10-13T02:24:05;95727.00;;;15.36;66.25
73674;BME280;61975;48.660;10.164;2023-10-13T02:26:38;95723.00;;;15.34;66.33
73674;BME280;61975;48.660;10.164;2023-10-13T02:29:06;95721.50;;;15.22;67.17
73674;BME280;61975;48.660;10.164;2023-10-13T02:31:40;95719.50;;;15.23;67.01
73674;BME280;61975;48.660;10.164;2023-10-13T02:34:06;95719.50;;;15.19;66.98
73674;BME280;61975;48.660;10.164;2023-10-13T02:36:38;95724.34;;;15.15;67.68
73674;BME280;61975;48.660;10.164;2023-10-13T02:39:18;95711.19;;;15.12;67.77
73674;BME280;61975;48.660;10.164;2023-10-13T02:41:55;95709.63;;;15.08;67.32
73674;BME280;61975;48.660;10.164;2023-10-13T02:44:21;95710.44;;;15.05;67.30
73674;BME280;61975;48.660;10.164;2023-10-13T02:46:57;95701.72;;;14.99;67.27
73674;BME280;61975;48.660;10.164;2023-10-13T02:49:26;95707.72;;;14.98;67.01
73674;BME280;61975;48.660;10.164;2023-10-13T02:51:55;95703.72;;;14.95;67.33
73674;BME280;61975;48.660;10.164;2023-10-13T02:54:25;95698.97;;;14.92;67.41
73674;BME280;61975;48.660;10.164;2023-10-13T02:56:55;95696.97;;;14.89;67.21
73674;BME280;61975;48.660;10.164;2023-10-13T02:59:29;95687.41;;;14.87;67.34
73674;BME280;61975;48.660;10.164;2023-10-13T03:02:21;95693.03;;;14.83;67.65
73674;BME280;61975;48.660;10.164;2023-10-13T03:04:51;95687.44;;;14.80;67.48
73674;BME280;61975;48.660;10.164;2023-10-13T03:07:17;95693.06;;;14.76;67.81
73674;BME280;61975;48.660;10.164;2023-10-13T03:09:49;95698.25;;;14.74;68.08
73674;BME280;61975;48.660;10.164;2023-10-13T03:12:19;95694.28;;;14.72;68.66
73674;BME280;61975;48.660;10.164;2023-10-13T03:14:44;95687.53;;;14.69;69.24
73674;BME280;61975;48.660;10.164;2023-10-13T03:17:13;95694.72;;;14.67;69.30
73674;BME280;61975;48.660;10.164;2023-10-13T03:19:46;95696.31;;;14.64;69.68
73674;BME280;61975;48.660;10.164;2023-10-13T03:22:15;95695.16;;;14.62;69.80
73674;BME280;61975;48.660;10.164;2023-10-13T03:24:42;95688.38;;;14.59;70.28
73674;BME280;61975;48.660;10.164;2023-10-13T03:27:19;95678.03;;;14.56;69.92
73674;BME280;61975;48.660;10.164;2023-10-13T03:29:48;95678.84;;;14.53;70.31
73674;BME280;61975;48.660;10.164;2023-10-13T03:32:20;95674.84;;;14.51;70.12
73674;BME280;61975;48.660;10.164;2023-10-13T03:34:46;95670.88;;;14.48;70.46
73674;BME280;61975;48.660;10.164;2023-10-13T03:37:24;95674.09;;;14.43;69.88
73674;BME280;61975;48.660;10.164;2023-10-13T03:40:12;95664.94;;;14.39;70.05
73674;BME280;61975;48.660;10.164;2023-10-13T03:42:54;95670.97;;;14.34;69.91
73674;BME280;61975;48.660;10.164;2023-10-13T03:45:42;95670.19;;;14.30;70.38
73674;BME280;61975;48.660;10.164;2023-10-13T03:50:41;95663.84;;;14.23;71.19
73674;BME280;61975;48.660;10.164;2023-10-13T03:53:25;95663.81;;;14.19;71.99
73674;BME280;61975;48.660;10.164;2023-10-13T03:56:02;95659.47;;;14.15;71.97
73674;BME280;61975;48.660;10.164;2023-10-13T03:58:40;95666.25;;;14.10;72.42
73674;BME280;61975;48.660;10.164;2023-10-13T04:01:12;95667.06;;;14.07;72.64
73674;BME280;61975;48.660;10.164;2023-10-13T04:03:43;95671.88;;;14.03;72.72
73674;BME280;61975;48.660;10.164;2023-10-13T04:06:43;95674.25;;;14.01;72.36
73674;BME280;61975;48.660;10.164;2023-10-13T04:09:19;95667.91;;;13.97;72.79
73674;BME280;61975;48.660;10.164;2023-10-13T04:11:57;95675.09;;;13.95;73.08
73674;BME280;61975;48.660;10.164;2023-10-13T04:14:29;95673.91;;;13.92;73.56
73674;BME280;61975;48.660;10.164;2023-10-13T04:17:14;95670.72;;;13.90;74.78
73674;BME280;61975;48.660;10.164;2023-10-13T04:19:43;95667.53;;;13.88;74.48
73674;BME280;61975;48.660;10.164;2023-10-13T04:22:27;95668.34;;;13.85;74.62
73674;BME280;61975;48.660;10.164;2023-10-13T04:25:15;95669.94;;;13.82;74.78
73674;BME280;61975;48.660;10.164;2023-10-13T04:27:53;95668.38;;;13.78;74.17
73674;BME280;61975;48.660;10.164;2023-10-13T04:30:36;95677.53;;;13.75;74.22
73674;BME280;61975;48.660;10.164;2023-10-13T04:33:18;95678.34;;;13.72;74.65
73674;BME280;61975;48.660;10.164;2023-10-13T04:36:11;95674.38;;;13.69;74.89
73674;BME280;61975;48.660;10.164;2023-10-13T04:38:56;95674.38;;;13.66;75.05
73674;BME280;61975;48.660;10.164;2023-10-13T04:43:50;95660.03;;;13.60;75.03
73674;BME280;61975;48.660;10.164;2023-10-13T04:46:21;95668.81;;;13.59;75.46
73674;BME280;61975;48.660;10.164;2023-10-13T04:49:06;95664.03;;;13.56;74.97
73674;BME280;61975;48.660;10.164;2023-10-13T04:51:50;95658.06;;;13.54;75.76
73674;BME280;61975;48.660;10.164;2023-10-13T04:54:24;95659.66;;;13.51;76.15
73674;BME280;61975;48.660;10.164;2023-10-13T04:56:58;95658.47;;;13.49;76.13
73674;BME280;61975;48.660;10.164;2023-10-13T04:59:23;95663.66;;;13.47;76.01
73674;BME280;61975;48.660;10.164;2023-10-13T05:02:09;95659.28;;;13.42;75.98
73674;BME280;61975;48.660;10.164;2023-10-13T05:04:53;95661.66;;;13.40;76.20
73674;BME280;61975;48.660;10.164;2023-10-13T05:07:31;95664.47;;;13.37;76.21
73674;BME280;61975;48.660;10.164;2023-10-13T05:10:15;95659.28;;;13.32;76.32
73674;BME280;61975;48.660;10.164;2023-10-13T05:12:59;95656.13;;;13.30;76.60
73674;BME280;61975;48.660;10.164;2023-10-13T05:15:48;95658.50;;;13.28;76.43
73674;BME280;61975;48.660;10.164;2023-10-13T05:18:33;95641.00;;;13.24;76.04
73674;BME280;61975;48.660;10.164;2023-10-13T05:21:17;95647.34;;;13.21;76.40
73674;BME280;61975;48.660;10.164;2023-10-13T05:24:01;95652.16;;;13.17;76.68
73674;BME280;61975;48.660;10.164;2023-10-13T05:26:45;95648.56;;;13.13;77.13
73674;BME280;61975;48.660;10.164;2023-10-13T05:29:29;95649.38;;;13.10;77.07
73674;BME280;61975;48.660;10.164;2023-10-13T05:32:13;95656.94;;;13.06;77.18
73674;BME280;61975;48.660;10.164;2023-10-13T05:34:57;95655.34;;;13.01;77.46
73674;BME280;61975;48.660;10.164;2023-10-13T05:37:41;95647.75;;;12.95;76.89
73674;BME280;61975;48.660;10.164;2023-10-13T05:40:25;95656.13;;;12.95;78.21
73674;BME280;61975;48.660;10.164;2023-10-13T05:43:09;95658.09;;;12.94;77.81
73674;BME280;61975;48.660;10.164;2023-10-13T05:45:53;95663.25;;;12.92;78.38
73674;BME280;61975;48.660;10.164;2023-10-13T05:48:37;95659.28;;;12.90;77.96
73674;BME280;61975;48.660;10.164;2023-10-13T05:51:29;95663.28;;;12.89;78.63
73674;BME280;61975;48.660;10.164;2023-10-13T05:54:09;95666.06;;;12.89;79.64
73674;BME280;61975;48.660;10.164;2023-10-13T05:56:44;95660.06;;;12.87;79.36
73674;BME280;61975;48.660;10.164;2023-10-13T05:59:45;95668.44;;;12.87;79.36
73674;BME280;61975;48.660;10.164;2023-10-13T06:02:29;95662.09;;;12.86;79.28
73674;BME280;61975;48.660;10.164;2023-10-13T06:05:13;95658.50;;;12.86;80.04
73674;BME280;61975;48.660;10.164;2023-10-13T06:07:57;95658.91;;;12.88;80.05
73674;BME280;61975;48.660;10.164;2023-10-13T06:10:42;95664.06;;;12.89;80.46
73674;BME280;61975;48.660;10.164;2023-10-13T06:13:27;95662.47;;;12.92;79.93
73674;BME280;61975;48.660;10.164;2023-10-13T06:16:16;95670.44;;;12.93;80.11
73674;BME280;61975;48.660;10.164;2023-10-13T06:19:00;95657.69;;;12.96;80.34
73674;BME280;61975;48.660;10.164;2023-10-13T06:21:45;95653.72;;;12.97;80.65
73674;BME280;61975;48.660;10.164;2023-10-13T06:24:29;95667.28;;;13.02;81.24
73674;BME280;61975;48.660;10.164;2023-10-13T06:27:14;95667.66;;;13.04;82.33
73674;BME280;61975;48.660;10.164;2023-10-13T06:29:58;95667.28;;;13.05;82.12
73674;BME280;61975;48.660;10.164;2023-10-13T06:32:24;95665.28;;;13.09;81.29
73674;BME280;61975;48.660;10.164;2023-10-13T06:34:55;95666.50;;;13.12;81.20
73674;BME280;61975;48.660;10.164;2023-10-13T06:37:30;95662.09;;;13.14;80.46
73674;BME280;61975;48.660;10.164;2023-10-13T06:40:03;95665.69;;;13.18;81.67
73674;BME280;61975;48.660;10.164;2023-10-13T06:42:48;95668.44;;;13.22;81.38
73674;BME280;61975;48.660;10.164;2023-10-13T06:45:13;95659.28;;;13.25;82.00
73674;BME280;61975;48.660;10.164;2023-10-13T06:47:42;95659.31;;;13.28;81.37
73674;BME280;61975;48.660;10.164;2023-10-13T06:50:12;95665.66;;;13.32;81.32
73674;BME280;61975;48.660;10.164;2023-10-13T06:52:42;95666.88;;;13.38;81.48
73674;BME280;61975;48.660;10.164;2023-10-13T06:55:08;95666.84;;;13.42;81.58
73674;BME280;61975;48.660;10.164;2023-10-13T06:57:43;95668.03;;;13.48;80.71
73674;BME280;61975;48.660;10.164;2023-10-13T07:00:12;95668.00;;;13.51;80.69
73674;BME280;61975;48.660;10.164;2023-10-13T07:02:48;95676.00;;;13.56;80.48
73674;BME280;61975;48.660;10.164;2023-10-13T07:05:16;95668.00;;;13.62;80.31
73674;BME280;61975;48.660;10.164;2023-10-13T07:07:42;95666.41;;;13.68;79.96
73674;BME280;61975;48.660;10.164;2023-10-13T07:10:10;95674.34;;;13.73;80.31
73674;BME280;61975;48.660;10.164;2023-10-13T07:12:37;95668.38;;;13.78;80.14
73674;BME280;61975;48.660;10.164;2023-10-13T07:15:03;95678.72;;;13.84;79.66
73674;BME280;61975;48.660;10.164;2023-10-13T07:17:45;95672.28;;;13.91;79.35
73674;BME280;61975;48.660;10.164;2023-10-13T07:20:11;95680.66;;;13.98;79.66
73674;BME280;61975;48.660;10.164;2023-10-13T07:22:41;95688.22;;;14.05;78.86
73674;BME280;61975;48.660;10.164;2023-10-13T07:25:20;95684.59;;;14.11;78.30
73674;BME280;61975;48.660;10.164;2023-10-13T07:27:49;95685.78;;;14.17;77.94
73674;BME280;61975;48.660;10.164;2023-10-13T07:30:14;95687.75;;;14.24;78.29
73674;BME280;61975;48.660;10.164;2023-10-13T07:32:45;95693.31;;;14.31;77.78
73674;BME280;61975;48.660;10.164;2023-10-13T07:35:18;95689.31;;;14.39;78.34
73674;BME280;61975;48.660;10.164;2023-10-13T07:37:50;95698.41;;;14.46;78.37
73674;BME280;61975;48.660;10.164;2023-10-13T07:40:17;95687.22;;;14.53;78.65
73674;BME280;61975;48.660;10.164;2023-10-13T07:42:52;95686.00;;;14.61;78.05
73674;BME280;61975;48.660;10.164;2023-10-13T07:45:26;95695.50;;;14.71;78.19
73674;BME280;61975;48.660;10.164;2023-10-13T07:48:01;95683.47;;;14.77;77.61
73674;BME280;61975;48.660;10.164;2023-10-13T07:50:33;95681.84;;;14.80;77.43
73674;BME280;61975;48.660;10.164;2023-10-13T07:52:59;95681.03;;;14.86;77.64
73674;BME280;61975;48.660;10.164;2023-10-13T07:55:32;95681.34;;;14.95;77.60
73674;BME280;61975;48.660;10.164;2023-10-13T07:57:59;95673.34;;;15.01;77.39
73674;BME280;61975;48.660;10.164;2023-10-13T08:00:25;95676.47;;;15.10;77.30
73674;BME280;61975;48.660;10.164;2023-10-13T08:03:03;95676.78;;;15.19;77.56
73674;BME280;61975;48.660;10.164;2023-10-13T08:05:42;95671.91;;;15.26;77.43
73674;BME280;61975;48.660;10.164;2023-10-13T08:08:25;95669.47;;;15.39;77.44
73674;BME280;61975;48.660;10.164;2023-10-13T08:10:57;95664.97;;;15.48;76.78
73674;BME280;61975;48.660;10.164;2023-10-13T08:13:28;95667.25;;;15.60;75.95
73674;BME280;61975;48.660;10.164;2023-10-13T08:15:53;95668.34;;;15.70;75.63
73674;BME280;61975;48.660;10.164;2023-10-13T08:18:19;95669.03;;;15.81;75.25
73674;BME280;61975;48.660;10.164;2023-10-13T08:21:04;95665.34;;;15.87;74.83
73674;BME280;61975;48.660;10.164;2023-10-13T08:23:32;95661.22;;;15.99;74.08
73674;BME280;61975;48.660;10.164;2023-10-13T08:26:27;95652.69;;;16.09;74.02
73674;BME280;61975;48.660;10.164;2023-10-13T08:29:16;95661.78;;;16.20;74.42
73674;BME280;61975;48.660;10.164;2023-10-13T08:31:52;95660.47;;;16.28;74.40
73674;BME280;61975;48.660;10.164;2023-10-13T08:34:33;95656.03;;;16.31;73.84
73674;BME280;61975;48.660;10.164;2023-10-13T08:37:06;95646.31;;;16.42;74.06
73674;BME280;61975;48.660;10.164;2023-10-13T08:39:47;95640.53;;;16.53;73.78
73674;BME280;61975;48.660;10.164;2023-10-13T08:42:37;95646.50;;;16.59;73.56
73674;BME280;61975;48.660;10.164;2023-10-13T08:45:09;95644.34;;;16.70;73.21
73674;BME280;61975;48.660;10.164;2023-10-13T08:47:50;95649.75;;;16.80;72.73
73674;BME280;61975;48.660;10.164;2023-10-13T08:50:35;95648.81;;;16.90;72.09
73674;BME280;61975;48.660;10.164;2023-10-13T08:53:23;95640.59;;;17.03;71.00
73674;BME280;61975;48.660;10.164;2023-10-13T08:55:53;95642.09;;;17.11;70.82
73674;BME280;61975;48.660;10.164;2023-10-13T08:58:37;95640.25;;;17.24;69.42
73674;BME280;61975;48.660;10.164;2023-10-13T09:01:34;95628.44;;;17.36;68.79
73674;BME280;61975;48.660;10.164;2023-10-13T09:04:25;95624.25;;;17.47;67.74
73674;BME280;61975;48.660;10.164;2023-10-13T09:07:03;95623.28;;;17.57;66.51
73674;BME280;61975;48.660;10.164;2023-10-13T09:09:51;95629.06;;;17.70;65.42
73674;BME280;61975;48.660;10.164;2023-10-13T09:15:04;95619.00;;;17.92;63.27
73674;BME280;61975;48.660;10.164;2023-10-13T09:17:47;95611.53;;;18.05;63.10
73674;BME280;61975;48.660;10.164;2023-10-13T09:20:31;95618.84;;;18.18;61.61
73674;BME280;61975;48.660;10.164;2023-10-13T09:23:17;95618.22;;;18.30;60.78
73674;BME280;61975;48.660;10.164;2023-10-13T09:25:50;95611.16;;;18.42;60.03
73674;BME280;61975;48.660;10.164;2023-10-13T09:28:23;95612.94;;;18.52;59.52
73674;BME280;61975;48.660;10.164;2023-10-13T09:30:55;95613.94;;;18.61;58.77
73674;BME280;61975;48.660;10.164;2023-10-13T09:35:54;95613.53;;;18.79;57.99
73674;BME280;61975;48.660;10.164;2023-10-13T09:38:20;95606.88;;;18.89;57.11
73674;BME280;61975;48.660;10.164;2023-10-13T09:40:46;95604.25;;;18.98;56.94
73674;BME280;61975;48.660;10.164;2023-10-13T09:43:31;95603.22;;;19.08;56.10
73674;BME280;61975;48.660;10.164;2023-10-13T09:46:01;95595.72;;;19.18;55.09
73674;BME280;61975;48.660;10.164;2023-10-13T09:48:47;95598.66;;;19.30;54.57
73674;BME280;61975;48.660;10.164;2023-10-13T09:51:17;95590.72;;;19.41;53.44
73674;BME280;61975;48.660;10.164;2023-10-13T09:56:37;95594.13;;;19.65;51.78
73674;BME280;61975;48.660;10.164;2023-10-13T09:59:26;95589.00;;;19.76;50.58
73674;BME280;61975;48.660;10.164;2023-10-13T10:02:01;95580.94;;;19.90;48.84
73674;BME280;61975;48.660;10.164;2023-10-13T10:04:34;95592.88;;;19.94;49.41
73674;BME280;61975;48.660;10.164;2023-10-13T10:07:10;95576.16;;;20.03;48.90
73674;BME280;61975;48.660;10.164;2023-10-13T10:09:36;95589.16;;;20.13;48.51
73674;BME280;61975;48.660;10.164;2023-10-13T10:15:35;95570.16;;;20.30;48.77
73674;BME280;61975;48.660;10.164;2023-10-13T10:18:01;95570.75;;;20.37;48.19
73674;BME280;61975;48.660;10.164;2023-10-13T10:20:31;95558.00;;;20.45;47.77
73674;BME280;61975;48.660;10.164;2023-10-13T10:23:29;95550.81;;;20.57;47.91
73674;BME280;61975;48.660;10.164;2023-10-13T10:26:12;95552.94;;;20.65;47.10
73674;BME280;61975;48.660;10.164;2023-10-13T10:28:42;95553.41;;;20.76;46.34
73674;BME280;61975;48.660;10.164;2023-10-13T10:31:08;95555.69;;;20.81;46.77
73674;BME280;61975;48.660;10.164;2023-10-13T10:33:38;95551.38;;;20.89;46.82
73674;BME280;61975;48.660;10.164;2023-10-13T10:36:04;95543.03;;;20.98;46.20
73674;BME280;61975;48.660;10.164;2023-10-13T10:38:30;95546.88;;;21.04;45.96
73674;BME280;61975;48.660;10.164;2023-10-13T10:41:06;95534.09;;;21.12;44.92
73674;BME280;61975;48.660;10.164;2023-10-13T10:46:18;95533.28;;;21.24;45.75
73674;BME280;61975;48.660;10.164;2023-10-13T10:48:44;95529.13;;;21.29;45.58
73674;BME280;61975;48.660;10.164;2023-10-13T10:51:11;95530.09;;;21.35;45.31
73674;BME280;61975;48.660;10.164;2023-10-13T10:53:49;95516.22;;;21.40;45.22
73674;BME280;61975;48.660;10.164;2023-10-13T10:56:17;95505.88;;;21.46;45.40
73674;BME280;61975;48.660;10.164;2023-10-13T10:58:54;95501.13;;;21.56;45.11
73674;BME280;61975;48.660;10.164;2023-10-13T11:01:23;95504.94;;;21.62;44.00
73674;BME280;61975;48.660;10.164;2023-10-13T11:03:59;95508.28;;;21.70;44.40
73674;BME280;61975;48.660;10.164;2023-10-13T11:06:34;95505.25;;;21.77;44.75
73674;BME280;61975;48.660;10.164;2023-10-13T11:11:30;95497.97;;;21.88;43.89
73674;BME280;61975;48.660;10.164;2023-10-13T11:14:00;95487.66;;;21.94;43.59
73674;BME280;61975;48.660;10.164;2023-10-13T11:16:48;95491.31;;;22.04;43.31
73674;BME280;61975;48.660;10.164;2023-10-13T11:19:33;95488.22;;;22.11;43.57
73674;BME280;61975;48.660;10.164;2023-10-13T11:22:36;95479.00;;;22.19;42.69
73674;BME280;61975;48.660;10.164;2023-10-13T11:25:02;95479.84;;;22.29;42.38
73674;BME280;61975;48.660;10.164;2023-10-13T11:27:38;95472.34;;;22.35;42.45
73674;BME280;61975;48.660;10.164;2023-10-13T11:30:16;95481.31;;;22.42;42.59
73674;BME280;61975;48.660;10.164;2023-10-13T11:33:09;95470.88;;;22.52;42.45
73674;BME280;61975;48.660;10.164;2023-10-13T11:35:41;95469.34;;;22.60;42.29
73674;BME280;61975;48.660;10.164;2023-10-13T11:41:01;95459.66;;;22.79;41.79
73674;BME280;61975;48.660;10.164;2023-10-13T11:43:35;95471.94;;;22.85;41.10
73674;BME280;61975;48.660;10.164;2023-10-13T11:46:11;95465.50;;;22.93;40.78
73674;BME280;61975;48.660;10.164;2023-10-13T11:48:37;95467.28;;;23.00;40.36
73674;BME280;61975;48.660;10.164;2023-10-13T11:51:06;95472.94;;;23.09;40.47
73674;BME280;61975;48.660;10.164;2023-10-13T11:53:36;95454.56;;;23.13;39.58
73674;BME280;61975;48.660;10.164;2023-10-13T11:56:02;95461.66;;;23.18;39.06
73674;BME280;61975;48.660;10.164;2023-10-13T11:58:38;95450.53;;;23.23;39.58
73674;BME280;61975;48.660;10.164;2023-10-13T12:01:05;95449.59;;;23.26;39.95
73674;BME280;61975;48.660;10.164;2023-10-13T12:03:43;95445.34;;;23.31;39.96
73674;BME280;61975;48.660;10.164;2023-10-13T12:06:28;95442.19;;;23.38;39.52
73674;BME280;61975;48.660;10.164;2023-10-13T12:09:07;95440.00;;;23.42;40.16
73674;BME280;61975;48.660;10.164;2023-10-13T12:11:45;95429.59;;;23.48;39.51
73674;BME280;61975;48.660;10.164;2023-10-13T12:14:12;95430.53;;;23.54;39.37
73674;BME280;61975;48.660;10.164;2023-10-13T12:16:52;95416.38;;;23.63;39.39
73674;BME280;61975;48.660;10.164;2023-10-13T12:19:24;95415.13;;;23.73;39.67
73674;BME280;61975;48.660;10.164;2023-10-13T12:21:50;95415.72;;;23.77;39.40
73674;BME280;61975;48.660;10.164;2023-10-13T12:24:22;95401.22;;;23.84;39.34
73674;BME280;61975;48.660;10.164;2023-10-13T12:26:56;95405.47;;;23.88;38.32
73674;BME280;61975;48.660;10.164;2023-10-13T12:29:25;95401.38;;;23.89;38.80
73674;BME280;61975;48.660;10.164;2023-10-13T12:31:55;95401.22;;;23.93;38.83
73674;BME280;61975;48.660;10.164;2023-10-13T12:34:36;95388.00;;;23.99;38.23
73674;BME280;61975;48.660;10.164;2023-10-13T12:37:20;95384.34;;;24.08;37.72
73674;BME280;61975;48.660;10.164;2023-10-13T12:40:08;95385.09;;;24.17;37.24
73674;BME280;61975;48.660;10.164;2023-10-13T12:42:52;95381.44;;;24.26;37.29
73674;BME280;61975;48.660;10.164;2023-10-13T12:45:40;95374.47;;;24.36;37.45
73674;BME280;61975;48.660;10.164;2023-10-13T12:48:24;95379.16;;;24.48;36.95
73674;BME280;61975;48.660;10.164;2023-10-13T12:51:08;95363.19;;;24.59;36.40
73674;BME280;61975;48.660;10.164;2023-10-13T12:53:49;95357.00;;;24.70;36.64
73674;BME280;61975;48.660;10.164;2023-10-13T12:56:15;95353.28;;;24.87;35.42
73674;BME280;61975;48.660;10.164;2023-10-13T12:58:41;95345.16;;;24.95;35.84
73674;BME280;61975;48.660;10.164;2023-10-13T13:01:07;95345.81;;;25.13;35.82
73674;BME280;61975;48.660;10.164;2023-10-13T13:03:33;95346.59;;;25.14;35.62
73674;BME280;61975;48.660;10.164;2023-10-13T13:05:59;95343.19;;;25.24;35.35
73674;BME280;61975;48.660;10.164;2023-10-13T13:08:28;95328.16;;;25.33;35.30
73674;BME280;61975;48.660;10.164;2023-10-13T13:11:00;95340.22;;;25.42;34.79
73674;BME280;61975;48.660;10.164;2023-10-13T13:13:26;95325.94;;;25.51;35.31
73674;BME280;61975;48.660;10.164;2023-10-13T13:15:52;95322.31;;;25.65;35.34
73674;BME280;61975;48.660;10.164;2023-10-13T13:18:17;95327.63;;;25.72;34.94
73674;BME280;61975;48.660;10.164;2023-10-13T13:20:44;95319.59;;;25.85;34.46
73674;BME280;61975;48.660;10.164;2023-10-13T13:23:20;95322.34;;;25.94;34.13
73674;BME280;61975;48.660;10.164;2023-10-13T13:25:47;95325.91;;;26.04;34.43
73674;BME280;61975;48.660;10.164;2023-10-13T13:28:12;95310.56;;;26.16;34.17
73674;BME280;61975;48.660;10.164;2023-10-13T13:30:41;95312.09;;;26.31;34.38
73674;BME280;61975;48.660;10.164;2023-10-13T13:33:06;95308.44;;;26.45;33.85
73674;BME280;61975;48.660;10.164;2023-10-13T13:35:38;95312.16;;;26.66;33.93
73674;BME280;61975;48.660;10.164;2023-10-13T13:38:04;95292.75;;;26.85;33.25
73674;BME280;61975;48.660;10.164;2023-10-13T13:40:38;95304.97;;;27.11;32.81
73674;BME280;61975;48.660;10.164;2023-10-13T13:43:05;95300.72;;;27.21;33.03
73674;BME280;61975;48.660;10.164;2023-10-13T13:45:32;95300.97;;;27.43;32.35
73674;BME280;61975;48.660;10.164;2023-10-13T13:47:59;95289.56;;;27.88;32.15
73674;BME280;61975;48.660;10.164;2023-10-13T13:50:26;95284.03;;;28.78;31.14
73674;BME280;61975;48.660;10.164;2023-10-13T13:52:54;95289.69;;;29.84;29.30